createdAt,value
2022-08-21T00:00:42.241Z,1013.50
2022-08-21T00:01:42.925Z,1013.49
2022-08-21T00:02:47.268Z,1013.48
2022-08-21T00:03:51.663Z,1013.46
2022-08-21T00:04:57.220Z,1013.43
2022-08-21T00:06:00.549Z,1013.41
2022-08-21T00:07:04.911Z,1013.40
2022-08-21T00:08:09.280Z,1013.38
2022-08-21T00:09:13.697Z,1013.37
2022-08-21T00:10:18.096Z,1013.35
2022-08-21T00:11:22.455Z,1013.34
2022-08-21T00:12:26.829Z,1013.34
2022-08-21T00:13:31.134Z,1013.34
2022-08-21T00:14:35.664Z,1013.31
2022-08-21T00:15:40.013Z,1013.30
2022-08-21T00:16:44.337Z,1013.31
2022-08-21T00:17:48.645Z,1013.29
2022-08-21T00:18:53.085Z,1013.27
2022-08-21T00:19:57.584Z,1013.27
2022-08-21T00:21:01.919Z,1013.26
2022-08-21T00:22:06.310Z,1013.28
2022-08-21T00:23:10.579Z,1013.29
2022-08-21T00:24:15.051Z,1013.29
2022-08-21T00:25:19.819Z,1013.30
2022-08-21T00:26:23.836Z,1013.30
2022-08-21T00:27:28.223Z,1013.31
2022-08-21T00:28:32.607Z,1013.31
2022-08-21T00:29:36.991Z,1013.30
2022-08-21T00:30:41.371Z,1013.30
2022-08-21T00:31:45.664Z,1013.31
2022-08-21T00:32:50.069Z,1013.31
2022-08-21T00:34:00.688Z,1013.33
2022-08-21T00:34:58.862Z,1013.34
2022-08-21T00:36:03.295Z,1013.33
2022-08-21T00:37:07.754Z,1013.34
2022-08-21T00:38:12.081Z,1013.33
2022-08-21T00:39:16.519Z,1013.34
2022-08-21T00:40:20.957Z,1013.34
2022-08-21T00:41:37.419Z,1013.35
2022-08-21T00:42:29.705Z,1013.36
2022-08-21T00:43:34.161Z,1013.35
2022-08-21T00:44:38.504Z,1013.34
2022-08-21T00:45:42.882Z,1013.34
2022-08-21T00:46:47.292Z,1013.34
2022-08-21T00:47:51.682Z,1013.32
2022-08-21T00:48:57.230Z,1013.33
2022-08-21T00:50:00.296Z,1013.31
2022-08-21T00:51:04.762Z,1013.32
2022-08-21T00:52:09.120Z,1013.29
2022-08-21T00:53:13.449Z,1013.28
2022-08-21T00:54:19.200Z,1013.27
2022-08-21T00:55:23.429Z,1013.27
2022-08-21T00:56:26.615Z,1013.27
2022-08-21T00:57:31.058Z,1013.27
2022-08-21T00:58:35.440Z,1013.27
2022-08-21T00:59:39.960Z,1013.27
2022-08-21T01:00:44.358Z,1013.27
2022-08-21T01:01:48.685Z,1013.25
2022-08-21T01:02:53.025Z,1013.25
2022-08-21T01:03:57.410Z,1013.23
2022-08-21T01:05:01.790Z,1013.23
2022-08-21T01:06:06.138Z,1013.23
2022-08-21T01:07:11.450Z,1013.26
2022-08-21T01:08:15.459Z,1013.25
2022-08-21T01:09:19.795Z,1013.26
2022-08-21T01:10:24.680Z,1013.27
2022-08-21T01:11:28.496Z,1013.26
2022-08-21T01:12:32.890Z,1013.27
2022-08-21T01:13:37.289Z,1013.28
2022-08-21T01:14:41.688Z,1013.27
2022-08-21T01:15:46.077Z,1013.26
2022-08-21T01:16:50.492Z,1013.25
2022-08-21T01:17:54.941Z,1013.26
2022-08-21T01:18:59.279Z,1013.25
2022-08-21T01:20:03.664Z,1013.27
2022-08-21T01:21:08.001Z,1013.27
2022-08-21T01:22:12.355Z,1013.28
2022-08-21T01:23:16.788Z,1013.28
2022-08-21T01:24:21.192Z,1013.30
2022-08-21T01:25:25.574Z,1013.30
2022-08-21T01:26:33.930Z,1013.30
2022-08-21T01:27:34.291Z,1013.30
2022-08-21T01:28:38.702Z,1013.30
2022-08-21T01:29:43.056Z,1013.30
2022-08-21T01:30:47.458Z,1013.33
2022-08-21T01:31:51.854Z,1013.32
2022-08-21T01:32:56.322Z,1013.31
2022-08-21T01:34:00.638Z,1013.31
2022-08-21T01:35:05.109Z,1013.31
2022-08-21T01:36:09.439Z,1013.34
2022-08-21T01:37:13.895Z,1013.34
2022-08-21T01:38:18.267Z,1013.35
2022-08-21T01:39:22.662Z,1013.37
2022-08-21T01:40:27.023Z,1013.37
2022-08-21T01:41:31.344Z,1013.39
2022-08-21T01:42:35.840Z,1013.42
2022-08-21T01:43:40.142Z,1013.45
2022-08-21T01:44:44.449Z,1013.45
2022-08-21T01:45:48.844Z,1013.45
2022-08-21T01:46:53.256Z,1013.47
2022-08-21T01:47:57.609Z,1013.46
2022-08-21T01:49:01.971Z,1013.47
2022-08-21T01:50:06.439Z,1013.45
2022-08-21T01:51:10.842Z,1013.46
2022-08-21T01:52:15.161Z,1013.47
2022-08-21T01:53:19.555Z,1013.45
2022-08-21T01:54:23.869Z,1013.44
2022-08-21T01:55:28.305Z,1013.43
2022-08-21T01:56:35.684Z,1013.42
2022-08-21T01:57:39.153Z,1013.40
2022-08-21T01:58:43.448Z,1013.38
2022-08-21T01:59:47.806Z,1013.39
2022-08-21T02:00:52.264Z,1013.42
2022-08-21T02:01:56.549Z,1013.40
2022-08-21T02:03:00.951Z,1013.42
2022-08-21T02:04:05.357Z,1013.41
2022-08-21T02:05:09.814Z,1013.42
2022-08-21T02:06:14.115Z,1013.41
2022-08-21T02:07:18.525Z,1013.44
2022-08-21T02:08:22.884Z,1013.45
2022-08-21T02:09:27.158Z,1013.43
2022-08-21T02:10:31.584Z,1013.43
2022-08-21T02:11:35.989Z,1013.43
2022-08-21T02:12:40.344Z,1013.45
2022-08-21T02:13:44.669Z,1013.46
2022-08-21T02:14:49.061Z,1013.47
2022-08-21T02:15:53.426Z,1013.47
2022-08-21T02:17:05.132Z,1013.50
2022-08-21T02:18:02.204Z,1013.51
2022-08-21T02:19:06.725Z,1013.53
2022-08-21T02:20:11.027Z,1013.52
2022-08-21T02:21:15.406Z,1013.52
2022-08-21T02:22:19.793Z,1013.50
2022-08-21T02:23:27.242Z,1013.48
2022-08-21T02:24:28.600Z,1013.45
2022-08-21T02:25:32.942Z,1013.44
2022-08-21T02:26:37.203Z,1013.43
2022-08-21T02:27:41.583Z,1013.43
2022-08-21T02:28:45.968Z,1013.42
2022-08-21T02:29:50.424Z,1013.41
2022-08-21T02:30:54.692Z,1013.39
2022-08-21T02:31:59.111Z,1013.41
2022-08-21T02:33:03.515Z,1013.43
2022-08-21T02:34:07.917Z,1013.41
2022-08-21T02:35:12.276Z,1013.41
2022-08-21T02:36:16.655Z,1013.41
2022-08-21T02:37:21.021Z,1013.39
2022-08-21T02:38:25.404Z,1013.37
2022-08-21T02:39:29.811Z,1013.37
2022-08-21T02:40:34.186Z,1013.34
2022-08-21T02:41:38.576Z,1013.34
2022-08-21T02:42:42.975Z,1013.33
2022-08-21T02:43:47.404Z,1013.33
2022-08-21T02:44:51.667Z,1013.31
2022-08-21T02:45:56.057Z,1013.30
2022-08-21T02:47:00.441Z,1013.32
2022-08-21T02:48:04.862Z,1013.36
2022-08-21T02:49:09.268Z,1013.36
2022-08-21T02:50:13.644Z,1013.34
2022-08-21T02:51:18.044Z,1013.28
2022-08-21T02:52:22.360Z,1013.26
2022-08-21T02:53:26.742Z,1013.27
2022-08-21T02:54:31.109Z,1013.25
2022-08-21T02:55:35.463Z,1013.26
2022-08-21T02:56:39.822Z,1013.26
2022-08-21T02:57:44.114Z,1013.26
2022-08-21T02:58:48.552Z,1013.26
2022-08-21T02:59:52.852Z,1013.25
2022-08-21T03:00:57.264Z,1013.27
2022-08-21T03:02:01.722Z,1013.27
2022-08-21T03:03:05.905Z,1013.29
2022-08-21T03:04:10.356Z,1013.32
2022-08-21T03:05:14.717Z,1013.31
2022-08-21T03:06:19.116Z,1013.30
2022-08-21T03:07:23.515Z,1013.28
2022-08-21T03:08:28.002Z,1013.24
2022-08-21T03:09:32.282Z,1013.26
2022-08-21T03:10:36.684Z,1013.27
2022-08-21T03:11:41.036Z,1013.26
2022-08-21T03:12:45.413Z,1013.27
2022-08-21T03:13:49.819Z,1013.28
2022-08-21T03:14:54.159Z,1013.26
2022-08-21T03:15:58.614Z,1013.26
2022-08-21T03:17:02.993Z,1013.25
2022-08-21T03:18:07.317Z,1013.24
2022-08-21T03:19:11.669Z,1013.24
2022-08-21T03:20:16.057Z,1013.23
2022-08-21T03:21:20.442Z,1013.25
2022-08-21T03:22:24.822Z,1013.25
2022-08-21T03:23:32.710Z,1013.25
2022-08-21T03:24:33.706Z,1013.28
2022-08-21T03:25:40.559Z,1013.28
2022-08-21T03:26:42.274Z,1013.30
2022-08-21T03:27:46.685Z,1013.32
2022-08-21T03:28:51.039Z,1013.33
2022-08-21T03:29:55.436Z,1013.36
2022-08-21T03:30:59.789Z,1013.35
2022-08-21T03:32:04.202Z,1013.37
2022-08-21T03:33:08.560Z,1013.37
2022-08-21T03:34:27.051Z,1013.38
2022-08-21T03:35:30.355Z,1013.37
2022-08-21T03:36:34.692Z,1013.40
2022-08-21T03:37:39.059Z,1013.40
2022-08-21T03:38:43.530Z,1013.39
2022-08-21T03:39:47.927Z,1013.40
2022-08-21T03:40:52.139Z,1013.40
2022-08-21T03:41:56.489Z,1013.41
2022-08-21T03:43:00.921Z,1013.39
2022-08-21T03:44:05.265Z,1013.41
2022-08-21T03:45:09.644Z,1013.38
2022-08-21T03:46:14.051Z,1013.40
2022-08-21T03:47:18.438Z,1013.41
2022-08-21T03:48:22.903Z,1013.38
2022-08-21T03:49:27.215Z,1013.40
2022-08-21T03:50:31.479Z,1013.43
2022-08-21T03:51:38.775Z,1013.44
2022-08-21T03:52:42.207Z,1013.44
2022-08-21T03:53:46.472Z,1013.44
2022-08-21T03:54:50.806Z,1013.44
2022-08-21T03:55:55.124Z,1013.46
2022-08-21T03:56:59.583Z,1013.47
2022-08-21T03:58:16.691Z,1013.49
2022-08-21T03:59:08.234Z,1013.50
2022-08-21T04:00:12.524Z,1013.51
2022-08-21T04:01:16.845Z,1013.51
2022-08-21T04:02:21.179Z,1013.51
2022-08-21T04:03:25.499Z,1013.49
2022-08-21T04:04:29.917Z,1013.50
2022-08-21T04:05:34.184Z,1013.50
2022-08-21T04:06:38.528Z,1013.53
2022-08-21T04:07:42.971Z,1013.54
2022-08-21T04:08:47.357Z,1013.54
2022-08-21T04:09:51.649Z,1013.55
2022-08-21T04:10:56.062Z,1013.57
2022-08-21T04:12:00.463Z,1013.59
2022-08-21T04:13:04.732Z,1013.59
2022-08-21T04:14:09.071Z,1013.61
2022-08-21T04:15:13.383Z,1013.61
2022-08-21T04:16:17.704Z,1013.62
2022-08-21T04:17:21.991Z,1013.61
2022-08-21T04:18:26.333Z,1013.64
2022-08-21T04:19:30.616Z,1013.63
2022-08-21T04:20:34.949Z,1013.64
2022-08-21T04:21:39.258Z,1013.62
2022-08-21T04:22:43.541Z,1013.61
2022-08-21T04:23:47.980Z,1013.61
2022-08-21T04:24:52.255Z,1013.63
2022-08-21T04:25:56.661Z,1013.61
2022-08-21T04:27:00.906Z,1013.63
2022-08-21T04:28:05.220Z,1013.62
2022-08-21T04:29:10.417Z,1013.65
2022-08-21T04:30:13.943Z,1013.64
2022-08-21T04:31:18.306Z,1013.64
2022-08-21T04:32:22.676Z,1013.68
2022-08-21T04:33:27.042Z,1013.68
2022-08-21T04:34:31.435Z,1013.69
2022-08-21T04:35:35.758Z,1013.69
2022-08-21T04:36:40.044Z,1013.68
2022-08-21T04:37:44.390Z,1013.69
2022-08-21T04:38:48.809Z,1013.69
2022-08-21T04:39:53.725Z,1013.70
2022-08-21T04:40:57.570Z,1013.70
2022-08-21T04:42:01.886Z,1013.72
2022-08-21T04:43:06.300Z,1013.72
2022-08-21T04:44:10.666Z,1013.72
2022-08-21T04:45:15.037Z,1013.73
2022-08-21T04:46:19.372Z,1013.71
2022-08-21T04:47:23.751Z,1013.70
2022-08-21T04:48:28.035Z,1013.70
2022-08-21T04:49:32.434Z,1013.69
2022-08-21T04:50:36.806Z,1013.70
2022-08-21T04:51:41.184Z,1013.70
2022-08-21T04:52:45.531Z,1013.71
2022-08-21T04:53:49.795Z,1013.72
2022-08-21T04:54:55.036Z,1013.73
2022-08-21T04:55:58.523Z,1013.74
2022-08-21T04:57:02.780Z,1013.75
2022-08-21T04:58:07.183Z,1013.76
2022-08-21T04:59:11.492Z,1013.75
2022-08-21T05:00:15.844Z,1013.75
2022-08-21T05:01:20.356Z,1013.75
2022-08-21T05:02:24.557Z,1013.75
2022-08-21T05:03:28.936Z,1013.75
2022-08-21T05:04:33.337Z,1013.74
2022-08-21T05:05:37.612Z,1013.75
2022-08-21T05:06:41.955Z,1013.74
2022-08-21T05:07:46.310Z,1013.74
2022-08-21T05:08:50.599Z,1013.75
2022-08-21T05:09:54.980Z,1013.75
2022-08-21T05:11:00.718Z,1013.74
2022-08-21T05:12:03.695Z,1013.73
2022-08-21T05:13:08.032Z,1013.73
2022-08-21T05:14:12.340Z,1013.75
2022-08-21T05:15:19.681Z,1013.75
2022-08-21T05:16:31.672Z,1013.75
2022-08-21T05:17:27.475Z,1013.72
2022-08-21T05:18:31.715Z,1013.72
2022-08-21T05:19:36.035Z,1013.69
2022-08-21T05:20:40.394Z,1013.70
2022-08-21T05:21:44.734Z,1013.71
2022-08-21T05:22:49.183Z,1013.71
2022-08-21T05:23:53.449Z,1013.71
2022-08-21T05:24:57.857Z,1013.73
2022-08-21T05:26:02.216Z,1013.76
2022-08-21T05:27:06.599Z,1013.76
2022-08-21T05:28:10.890Z,1013.77
2022-08-21T05:29:15.234Z,1013.76
2022-08-21T05:30:19.660Z,1013.76
2022-08-21T05:31:24.025Z,1013.78
2022-08-21T05:32:28.252Z,1013.81
2022-08-21T05:33:32.629Z,1013.82
2022-08-21T05:34:36.914Z,1013.82
2022-08-21T05:35:41.254Z,1013.85
2022-08-21T05:36:45.668Z,1013.85
2022-08-21T05:37:50.023Z,1013.88
2022-08-21T05:38:54.327Z,1013.88
2022-08-21T05:40:20.656Z,1013.87
2022-08-21T05:41:03.041Z,1013.85
2022-08-21T05:42:07.280Z,1013.84
2022-08-21T05:43:11.607Z,1013.84
2022-08-21T05:44:15.986Z,1013.86
2022-08-21T05:45:34.691Z,1013.84
2022-08-21T05:46:24.699Z,1013.88
2022-08-21T05:47:29.046Z,1013.84
2022-08-21T05:48:33.469Z,1013.86
2022-08-21T05:49:37.771Z,1013.86
2022-08-21T05:50:42.205Z,1013.88
2022-08-21T05:51:46.531Z,1013.91
2022-08-21T05:52:50.943Z,1013.92
2022-08-21T05:53:55.251Z,1013.92
2022-08-21T05:54:59.675Z,1013.92
2022-08-21T05:56:04.031Z,1013.92
2022-08-21T05:57:08.397Z,1013.91
2022-08-21T05:58:12.816Z,1013.91
2022-08-21T05:59:17.098Z,1013.87
2022-08-21T06:00:21.528Z,1013.85
2022-08-21T06:01:25.928Z,1013.85
2022-08-21T06:02:30.227Z,1013.83
2022-08-21T06:03:34.551Z,1013.81
2022-08-21T06:04:38.977Z,1013.78
2022-08-21T06:05:43.274Z,1013.76
2022-08-21T06:06:47.604Z,1013.76
2022-08-21T06:07:51.972Z,1013.72
2022-08-21T06:08:56.377Z,1013.71
2022-08-21T06:10:00.705Z,1013.71
2022-08-21T06:11:05.047Z,1013.69
2022-08-21T06:12:09.431Z,1013.65
2022-08-21T06:13:13.873Z,1013.66
2022-08-21T06:14:18.247Z,1013.63
2022-08-21T06:15:22.616Z,1013.65
2022-08-21T06:16:26.992Z,1013.67
2022-08-21T06:17:31.369Z,1013.67
2022-08-21T06:18:35.709Z,1013.66
2022-08-21T06:19:40.126Z,1013.67
2022-08-21T06:20:44.388Z,1013.68
2022-08-21T06:21:48.738Z,1013.69
2022-08-21T06:22:53.158Z,1013.68
2022-08-21T06:23:57.411Z,1013.70
2022-08-21T06:25:01.771Z,1013.70
2022-08-21T06:26:06.101Z,1013.68
2022-08-21T06:27:10.553Z,1013.68
2022-08-21T06:28:14.860Z,1013.67
2022-08-21T06:29:19.310Z,1013.69
2022-08-21T06:30:23.694Z,1013.72
2022-08-21T06:31:28.041Z,1013.73
2022-08-21T06:32:32.428Z,1013.74
2022-08-21T06:33:36.841Z,1013.75
2022-08-21T06:34:41.236Z,1013.77
2022-08-21T06:35:45.653Z,1013.78
2022-08-21T06:36:50.023Z,1013.79
2022-08-21T06:37:54.377Z,1013.79
2022-08-21T06:38:58.740Z,1013.79
2022-08-21T06:40:03.204Z,1013.81
2022-08-21T06:41:07.598Z,1013.81
2022-08-21T06:42:11.939Z,1013.82
2022-08-21T06:43:16.310Z,1013.82
2022-08-21T06:44:20.690Z,1013.84
2022-08-21T06:45:25.104Z,1013.80
2022-08-21T06:46:29.415Z,1013.83
2022-08-21T06:47:33.745Z,1013.81
2022-08-21T06:48:38.165Z,1013.82
2022-08-21T06:49:42.525Z,1013.82
2022-08-21T06:50:46.829Z,1013.82
2022-08-21T06:51:51.193Z,1013.81
2022-08-21T06:52:55.607Z,1013.81
2022-08-21T06:53:59.926Z,1013.80
2022-08-21T06:55:04.255Z,1013.77
2022-08-21T06:56:08.631Z,1013.76
2022-08-21T06:57:12.983Z,1013.74
2022-08-21T06:58:17.428Z,1013.75
2022-08-21T06:59:21.893Z,1013.74
2022-08-21T07:00:26.171Z,1013.69
2022-08-21T07:01:30.601Z,1013.69
2022-08-21T07:02:34.888Z,1013.68
2022-08-21T07:03:39.230Z,1013.69
2022-08-21T07:04:43.685Z,1013.67
2022-08-21T07:05:48.016Z,1013.67
2022-08-21T07:06:52.419Z,1013.67
2022-08-21T07:07:56.831Z,1013.65
2022-08-21T07:09:01.208Z,1013.63
2022-08-21T07:10:05.649Z,1013.64
2022-08-21T07:11:09.961Z,1013.65
2022-08-21T07:12:14.408Z,1013.66
2022-08-21T07:13:18.744Z,1013.65
2022-08-21T07:14:23.290Z,1013.63
2022-08-21T07:15:27.617Z,1013.61
2022-08-21T07:16:31.975Z,1013.60
2022-08-21T07:17:36.427Z,1013.60
2022-08-21T07:18:40.781Z,1013.61
2022-08-21T07:19:45.221Z,1013.60
2022-08-21T07:20:49.659Z,1013.59
2022-08-21T07:21:54.042Z,1013.61
2022-08-21T07:22:58.605Z,1013.61
2022-08-21T07:24:02.745Z,1013.60
2022-08-21T07:25:07.108Z,1013.61
2022-08-21T07:26:11.553Z,1013.60
2022-08-21T07:27:15.909Z,1013.60
2022-08-21T07:28:20.337Z,1013.60
2022-08-21T07:29:24.693Z,1013.60
2022-08-21T07:30:29.041Z,1013.59
2022-08-21T07:31:33.496Z,1013.59
2022-08-21T07:32:37.855Z,1013.59
2022-08-21T07:33:42.304Z,1013.60
2022-08-21T07:34:46.701Z,1013.60
2022-08-21T07:35:51.095Z,1013.57
2022-08-21T07:36:55.459Z,1013.59
2022-08-21T07:37:59.884Z,1013.57
2022-08-21T07:39:04.278Z,1013.54
2022-08-21T07:40:08.722Z,1013.53
2022-08-21T07:41:13.024Z,1013.52
2022-08-21T07:42:18.440Z,1013.49
2022-08-21T07:43:22.382Z,1013.45
2022-08-21T07:44:26.773Z,1013.41
2022-08-21T07:45:31.192Z,1013.41
2022-08-21T07:46:35.509Z,1013.39
2022-08-21T07:47:42.239Z,1013.41
2022-08-21T07:48:44.332Z,1013.40
2022-08-21T07:49:48.775Z,1013.42
2022-08-21T07:50:53.101Z,1013.41
2022-08-21T07:51:57.562Z,1013.45
2022-08-21T07:53:01.911Z,1013.43
2022-08-21T07:54:06.363Z,1013.43
2022-08-21T07:55:10.786Z,1013.42
2022-08-21T07:56:15.232Z,1013.45
2022-08-21T07:57:19.552Z,1013.45
2022-08-21T07:58:23.930Z,1013.43
2022-08-21T07:59:28.509Z,1013.41
2022-08-21T08:00:32.820Z,1013.41
2022-08-21T08:01:37.350Z,1013.41
2022-08-21T08:02:41.682Z,1013.41
2022-08-21T08:03:46.101Z,1013.43
2022-08-21T08:04:50.875Z,1013.43
2022-08-21T08:05:54.877Z,1013.43
2022-08-21T08:06:59.204Z,1013.43
2022-08-21T08:08:03.716Z,1013.43
2022-08-21T08:09:08.147Z,1013.42
2022-08-21T08:10:12.526Z,1013.42
2022-08-21T08:11:16.902Z,1013.43
2022-08-21T08:12:21.360Z,1013.42
2022-08-21T08:13:25.800Z,1013.41
2022-08-21T08:14:31.708Z,1013.42
2022-08-21T08:15:37.621Z,1013.42
2022-08-21T08:16:38.973Z,1013.44
2022-08-21T08:17:43.426Z,1013.44
2022-08-21T08:18:47.797Z,1013.45
2022-08-21T08:19:52.175Z,1013.47
2022-08-21T08:20:56.555Z,1013.48
2022-08-21T08:22:00.922Z,1013.46
2022-08-21T08:23:05.329Z,1013.46
2022-08-21T08:24:19.387Z,1013.49
2022-08-21T08:25:14.224Z,1013.49
2022-08-21T08:26:18.653Z,1013.48
2022-08-21T08:27:23.007Z,1013.47
2022-08-21T08:28:27.505Z,1013.48
2022-08-21T08:29:31.936Z,1013.46
2022-08-21T08:30:36.307Z,1013.44
2022-08-21T08:31:43.663Z,1013.44
2022-08-21T08:33:01.594Z,1013.42
2022-08-21T08:34:04.622Z,1013.40
2022-08-21T08:35:09.079Z,1013.41
2022-08-21T08:36:13.498Z,1013.39
2022-08-21T08:37:17.952Z,1013.38
2022-08-21T08:38:24.424Z,1013.38
2022-08-21T08:39:29.645Z,1013.36
2022-08-21T08:40:31.051Z,1013.38
2022-08-21T08:41:35.464Z,1013.37
2022-08-21T08:42:39.912Z,1013.38
2022-08-21T08:43:44.284Z,1013.39
2022-08-21T08:44:48.714Z,1013.41
2022-08-21T08:45:53.145Z,1013.39
2022-08-21T08:46:57.692Z,1013.39
2022-08-21T08:48:02.010Z,1013.36
2022-08-21T08:49:06.447Z,1013.35
2022-08-21T08:50:10.791Z,1013.33
2022-08-21T08:51:15.166Z,1013.35
2022-08-21T08:52:19.550Z,1013.33
2022-08-21T08:53:23.931Z,1013.30
2022-08-21T08:54:28.354Z,1013.31
2022-08-21T08:55:32.731Z,1013.32
2022-08-21T08:56:37.187Z,1013.32
2022-08-21T08:57:41.511Z,1013.30
2022-08-21T08:58:45.994Z,1013.30
2022-08-21T08:59:50.353Z,1013.27
2022-08-21T09:00:54.889Z,1013.25
2022-08-21T09:01:59.204Z,1013.25
2022-08-21T09:03:03.605Z,1013.23
2022-08-21T09:04:07.993Z,1013.24
2022-08-21T09:05:12.386Z,1013.21
2022-08-21T09:06:16.779Z,1013.22
2022-08-21T09:07:21.298Z,1013.25
2022-08-21T09:08:25.706Z,1013.26
2022-08-21T09:09:30.101Z,1013.25
2022-08-21T09:10:34.451Z,1013.27
2022-08-21T09:11:38.870Z,1013.27
2022-08-21T09:12:43.375Z,1013.27
2022-08-21T09:13:47.876Z,1013.24
2022-08-21T09:14:52.334Z,1013.24
2022-08-21T09:15:56.776Z,1013.21
2022-08-21T09:17:01.091Z,1013.24
2022-08-21T09:18:07.846Z,1013.21
2022-08-21T09:19:10.050Z,1013.23
2022-08-21T09:20:14.456Z,1013.22
2022-08-21T09:21:21.877Z,1013.24
2022-08-21T09:22:25.381Z,1013.21
2022-08-21T09:23:29.807Z,1013.21
2022-08-21T09:24:34.287Z,1013.21
2022-08-21T09:25:38.625Z,1013.19
2022-08-21T09:26:43.101Z,1013.15
2022-08-21T09:27:47.491Z,1013.11
2022-08-21T09:28:51.918Z,1013.11
2022-08-21T09:29:56.396Z,1013.10
2022-08-21T09:31:00.748Z,1013.08
2022-08-21T09:32:05.164Z,1013.10
2022-08-21T09:33:09.642Z,1013.08
2022-08-21T09:34:14.065Z,1013.09
2022-08-21T09:35:18.502Z,1013.11
2022-08-21T09:36:22.863Z,1013.11
2022-08-21T09:37:27.376Z,1013.09
2022-08-21T09:38:31.732Z,1013.06
2022-08-21T09:39:40.303Z,1013.09
2022-08-21T09:40:40.692Z,1013.07
2022-08-21T09:41:45.121Z,1013.07
2022-08-21T09:42:49.574Z,1013.08
2022-08-21T09:43:53.998Z,1013.05
2022-08-21T09:44:58.431Z,1013.06
2022-08-21T09:46:02.834Z,1013.05
2022-08-21T09:47:07.225Z,1013.06
2022-08-21T09:48:11.736Z,1013.04
2022-08-21T09:49:16.117Z,1013.05
2022-08-21T09:50:20.512Z,1013.07
2022-08-21T09:51:24.931Z,1013.07
2022-08-21T09:52:32.329Z,1013.05
2022-08-21T09:53:36.265Z,1013.07
2022-08-21T09:54:40.363Z,1013.06
2022-08-21T09:55:44.797Z,1013.07
2022-08-21T09:56:49.180Z,1013.04
2022-08-21T09:57:53.671Z,1013.04
2022-08-21T09:58:58.067Z,1013.08
2022-08-21T10:00:02.549Z,1013.09
2022-08-21T10:01:07.109Z,1013.08
2022-08-21T10:02:11.457Z,1013.08
2022-08-21T10:03:15.947Z,1013.04
2022-08-21T10:04:20.387Z,1013.04
2022-08-21T10:05:24.825Z,1013.04
2022-08-21T10:06:29.283Z,1013.07
2022-08-21T10:07:33.718Z,1013.06
2022-08-21T10:08:38.177Z,1013.06
2022-08-21T10:09:42.642Z,1013.04
2022-08-21T10:10:47.121Z,1013.04
2022-08-21T10:11:51.676Z,1013.04
2022-08-21T10:12:56.099Z,1013.05
2022-08-21T10:14:00.473Z,1013.04
2022-08-21T10:15:08.441Z,1013.04
2022-08-21T10:16:09.408Z,1013.00
2022-08-21T10:17:13.849Z,1013.03
2022-08-21T10:18:18.302Z,1013.04
2022-08-21T10:19:23.643Z,1013.01
2022-08-21T10:20:27.216Z,1013.02
2022-08-21T10:21:31.650Z,1013.02
2022-08-21T10:22:36.093Z,1013.00
2022-08-21T10:23:40.556Z,1013.02
2022-08-21T10:24:44.994Z,1013.03
2022-08-21T10:25:56.413Z,1013.02
2022-08-21T10:26:53.939Z,1012.98
2022-08-21T10:27:58.433Z,1012.93
2022-08-21T10:29:02.880Z,1012.96
2022-08-21T10:30:07.349Z,1012.94
2022-08-21T10:31:11.801Z,1012.92
2022-08-21T10:32:25.999Z,1012.93
2022-08-21T10:33:20.702Z,1012.92
2022-08-21T10:34:25.182Z,1012.90
2022-08-21T10:35:29.608Z,1012.89
2022-08-21T10:36:34.095Z,1012.90
2022-08-21T10:37:38.551Z,1012.90
2022-08-21T10:39:02.697Z,1012.86
2022-08-21T10:39:47.447Z,1012.89
2022-08-21T10:40:51.966Z,1012.86
2022-08-21T10:41:59.373Z,1012.82
2022-08-21T10:43:00.842Z,1012.81
2022-08-21T10:44:05.332Z,1012.79
2022-08-21T10:45:09.793Z,1012.78
2022-08-21T10:46:14.284Z,1012.80
2022-08-21T10:47:18.718Z,1012.82
2022-08-21T10:48:23.184Z,1012.81
2022-08-21T10:49:27.614Z,1012.82
2022-08-21T10:50:32.096Z,1012.84
2022-08-21T10:51:36.532Z,1012.83
2022-08-21T10:52:43.583Z,1012.82
2022-08-21T10:53:45.426Z,1012.83
2022-08-21T10:54:49.925Z,1012.77
2022-08-21T10:55:54.383Z,1012.79
2022-08-21T10:58:26.432Z,1012.75
2022-08-21T10:59:33.333Z,1012.76
2022-08-21T11:00:35.312Z,1012.80
2022-08-21T11:01:42.705Z,1012.78
2022-08-21T11:02:46.273Z,1012.77
2022-08-21T11:03:50.742Z,1012.75
2022-08-21T11:04:55.196Z,1012.75
2022-08-21T11:05:59.674Z,1012.74
2022-08-21T11:07:06.570Z,1012.71
2022-08-21T11:08:08.639Z,1012.72
2022-08-21T11:09:13.093Z,1012.71
2022-08-21T11:10:17.560Z,1012.73
2022-08-21T11:11:22.584Z,1012.73
2022-08-21T11:12:26.581Z,1012.75
2022-08-21T11:13:31.320Z,1012.78
2022-08-21T11:14:35.472Z,1012.75
2022-08-21T11:15:39.919Z,1012.78
2022-08-21T11:16:44.369Z,1012.78
2022-08-21T11:17:48.813Z,1012.75
2022-08-21T11:18:53.256Z,1012.77
2022-08-21T11:19:57.710Z,1012.74
2022-08-21T11:21:02.190Z,1012.74
2022-08-21T11:22:06.672Z,1012.73
2022-08-21T11:23:11.550Z,1012.71
2022-08-21T11:24:15.603Z,1012.71
2022-08-21T11:25:20.028Z,1012.74
2022-08-21T11:26:24.503Z,1012.74
2022-08-21T11:27:28.974Z,1012.75
2022-08-21T11:28:33.422Z,1012.72
2022-08-21T11:29:37.833Z,1012.68
2022-08-21T11:30:42.315Z,1012.70
2022-08-21T11:31:46.765Z,1012.66
2022-08-21T11:32:51.249Z,1012.64
2022-08-21T11:33:55.654Z,1012.65
2022-08-21T11:35:00.149Z,1012.64
2022-08-21T11:36:04.562Z,1012.64
2022-08-21T11:37:09.114Z,1012.70
2022-08-21T11:38:13.571Z,1012.68
2022-08-21T11:39:18.060Z,1012.67
2022-08-21T11:40:22.579Z,1012.59
2022-08-21T11:41:27.000Z,1012.59
2022-08-21T11:42:31.483Z,1012.61
2022-08-21T11:43:35.956Z,1012.59
2022-08-21T11:44:40.389Z,1012.60
2022-08-21T11:45:44.901Z,1012.56
2022-08-21T11:46:49.354Z,1012.56
2022-08-21T11:47:54.059Z,1012.56
2022-08-21T11:48:58.300Z,1012.50
2022-08-21T11:50:02.800Z,1012.52
2022-08-21T11:51:07.261Z,1012.55
2022-08-21T11:52:11.751Z,1012.54
2022-08-21T11:53:16.220Z,1012.47
2022-08-21T11:54:20.688Z,1012.44
2022-08-21T11:55:25.253Z,1012.44
2022-08-21T11:56:29.653Z,1012.46
2022-08-21T11:57:34.108Z,1012.49
2022-08-21T11:58:38.691Z,1012.50
2022-08-21T11:59:43.123Z,1012.47
2022-08-21T12:00:47.589Z,1012.48
2022-08-21T12:01:52.126Z,1012.46
2022-08-21T12:02:56.718Z,1012.41
2022-08-21T12:04:01.064Z,1012.41
2022-08-21T12:05:11.530Z,1012.45
2022-08-21T12:06:14.671Z,1012.45
2022-08-21T12:07:19.153Z,1012.42
2022-08-21T12:08:23.600Z,1012.37
2022-08-21T12:09:28.098Z,1012.37
2022-08-21T12:10:32.567Z,1012.43
2022-08-21T12:11:37.042Z,1012.40
2022-08-21T12:12:41.511Z,1012.39
2022-08-21T12:13:45.992Z,1012.41
2022-08-21T12:14:56.464Z,1012.45
2022-08-21T12:15:59.613Z,1012.45
2022-08-21T12:17:04.063Z,1012.45
2022-08-21T12:18:08.542Z,1012.45
2022-08-21T12:19:13.031Z,1012.41
2022-08-21T12:20:17.537Z,1012.40
2022-08-21T12:21:22.002Z,1012.43
2022-08-21T12:22:26.462Z,1012.43
2022-08-21T12:23:31.036Z,1012.43
2022-08-21T12:24:35.484Z,1012.43
2022-08-21T12:25:42.084Z,1012.46
2022-08-21T12:26:44.450Z,1012.47
2022-08-21T12:27:48.915Z,1012.48
2022-08-21T12:28:53.346Z,1012.46
2022-08-21T12:29:57.835Z,1012.44
2022-08-21T12:31:02.305Z,1012.47
2022-08-21T12:32:06.780Z,1012.46
2022-08-21T12:33:11.249Z,1012.43
2022-08-21T12:34:15.758Z,1012.47
2022-08-21T12:35:24.991Z,1012.47
2022-08-21T12:36:24.685Z,1012.49
2022-08-21T12:37:29.177Z,1012.48
2022-08-21T12:38:33.655Z,1012.48
2022-08-21T12:39:38.249Z,1012.49
2022-08-21T12:40:42.533Z,1012.48
2022-08-21T12:41:47.005Z,1012.52
2022-08-21T12:42:58.585Z,1012.55
2022-08-21T12:43:55.927Z,1012.54
2022-08-21T12:45:00.387Z,1012.54
2022-08-21T12:46:04.876Z,1012.53
2022-08-21T12:47:09.350Z,1012.52
2022-08-21T12:48:13.831Z,1012.53
2022-08-21T12:49:18.283Z,1012.53
2022-08-21T12:50:22.754Z,1012.51
2022-08-21T12:51:27.328Z,1012.51
2022-08-21T12:52:35.709Z,1012.51
2022-08-21T12:53:36.197Z,1012.50
2022-08-21T12:54:40.657Z,1012.49
2022-08-21T12:55:45.117Z,1012.48
2022-08-21T12:56:49.570Z,1012.46
2022-08-21T12:57:54.018Z,1012.45
2022-08-21T12:58:58.466Z,1012.44
2022-08-21T13:00:03.079Z,1012.43
2022-08-21T13:01:07.425Z,1012.43